Terminal Aerodrome Forecast
Issued by NWS

Home | Current Version | Previous Version | Text Only | Print | Product List | Glossary On
Versions: 1 2 3 4 5 6 7 8 9 10 11 12 13
000
FTUS46 KPDT 011120
TAFRDM
TAF
KRDM 011120Z 0112/0212 17008KT P6SM SCT100
     FM011700 20011KT P6SM SCT080
     FM012100 24012G18KT P6SM SCT080
     FM020200 27008KT P6SM FEW090
     FM020700 17005KT P6SM BKN090=

USA.gov is the U.S. government's official web portal to all federal, state and local government web resources and services.